Time;durP1;ratioP1;P1;durP2;ratioP2;P2;SDS_P1;SDS_P2;PMS_P1;PMS_P2;Temp;Humidity;BMP_temperature;BMP_pressure;BME280_temperature;BME280_humidity;BME280_pressure;Samples;Min_cycle;Max_cycle;Signal;HPM_P1;HPM_P2
2023/01/12 00:02:19;;;;;;;33.75;3.30;;;;;;;5.18;98.67;96689.50;5012715;28;20061;-79
2023/01/12 00:04:46;;;;;;;20.63;2.35;;;;;;;5.18;98.50;96694.91;5012437;28;20046;-79
2023/01/12 00:07:14;;;;;;;29.08;2.65;;;;;;;5.06;99.35;96697.88;5012496;28;20573;-79
2023/01/12 00:09:41;;;;;;;26.15;2.47;;;;;;;5.06;99.39;96702.47;5013681;28;20045;-79
2023/01/12 00:12:11;;;;;;;39.03;3.25;;;;;;;4.97;99.67;96700.34;5012344;28;20046;-78
2023/01/12 00:14:39;;;;;;;27.60;2.50;;;;;;;4.95;99.43;96699.78;5013423;28;20053;-78
2023/01/12 00:17:07;;;;;;;25.85;2.35;;;;;;;4.93;99.09;96699.25;5013420;28;20050;-79
2023/01/12 00:19:35;;;;;;;24.80;2.22;;;;;;;4.88;98.71;96691.19;5014074;28;20493;-79
2023/01/12 00:22:07;;;;;;;34.67;2.83;;;;;;;4.81;98.50;96697.97;5013540;28;20049;-78
2023/01/12 00:24:37;;;;;;;29.20;2.65;;;;;;;4.78;98.70;96698.50;5013483;28;20049;-79
2023/01/12 00:27:06;;;;;;;41.10;3.28;;;;;;;4.85;98.22;96702.50;5012769;28;20132;-78
2023/01/12 00:29:34;;;;;;;29.52;2.38;;;;;;;4.82;98.56;96699.56;5013107;28;20056;-79
2023/01/12 00:32:01;;;;;;;14.95;2.17;;;;;;;4.78;98.60;96702.00;5012306;28;20046;-78
2023/01/12 00:34:28;;;;;;;25.80;2.38;;;;;;;4.65;99.66;96705.25;5012592;28;20045;-80
2023/01/12 00:36:54;;;;;;;20.33;1.98;;;;;;;4.58;100.00;96696.63;5012993;28;20132;-79
2023/01/12 00:39:22;;;;;;;32.28;3.05;;;;;;;4.50;100.00;96689.91;5011389;28;20049;-78
2023/01/12 00:47:19;;;;;;;30.40;2.90;;;;;;;4.55;100.00;96713.34;5011728;28;20124;-79
2023/01/12 00:49:46;;;;;;;24.70;2.60;;;;;;;4.65;100.00;96707.97;5011534;28;20556;-79
2023/01/12 00:52:14;;;;;;;39.95;3.30;;;;;;;4.70;100.00;96705.25;5011585;28;20057;-79
2023/01/12 00:54:41;;;;;;;27.55;2.72;;;;;;;4.74;100.00;96703.59;5012057;28;20414;-81
2023/01/12 00:57:08;;;;;;;24.70;2.75;;;;;;;4.80;100.00;96699.81;5011439;28;20045;-79
2023/01/12 00:59:36;;;;;;;23.00;2.67;;;;;;;4.85;100.00;96697.09;5011840;28;20669;-80
2023/01/12 01:02:04;;;;;;;27.52;2.70;;;;;;;4.90;100.00;96696.28;5010993;28;20496;-79
2023/01/12 01:04:30;;;;;;;31.27;2.40;;;;;;;4.88;100.00;96707.38;5012184;28;20414;-80
2023/01/12 01:06:57;;;;;;;24.70;2.08;;;;;;;4.92;100.00;96711.16;5011434;28;20696;-80
2023/01/12 01:09:23;;;;;;;29.67;2.40;;;;;;;5.00;98.16;96708.97;5010338;28;20041;-78
2023/01/12 01:11:50;;;;;;;20.63;2.45;;;;;;;5.00;97.44;96715.16;5011161;28;20042;-79
2023/01/12 01:14:17;;;;;;;50.42;3.55;;;;;;;4.95;97.38;96713.28;5010359;28;20053;-79
2023/01/12 01:16:45;;;;;;;29.17;2.40;;;;;;;4.91;97.69;96703.34;5010377;28;20072;-80
2023/01/12 01:19:11;;;;;;;43.70;3.25;;;;;;;4.87;97.60;96703.06;5010750;28;20050;-80
2023/01/12 01:21:38;;;;;;;37.67;2.83;;;;;;;4.84;97.41;96695.50;5011884;28;20046;-80
2023/01/12 01:24:05;;;;;;;39.08;3.35;;;;;;;4.81;97.64;96685.28;5011166;28;20045;-79
2023/01/12 01:26:31;;;;;;;14.88;1.70;;;;;;;4.72;98.20;96681.50;5013324;28;20676;-81
2023/01/12 01:28:58;;;;;;;31.60;2.72;;;;;;;4.76;98.40;96695.25;5012624;28;20049;-81
2023/01/12 01:31:26;;;;;;;18.17;1.90;;;;;;;4.63;98.44;96693.91;5005673;28;20058;-81
2023/01/12 01:33:54;;;;;;;30.80;2.72;;;;;;;4.54;99.34;96692.84;5011940;28;20412;-80
2023/01/12 01:36:21;;;;;;;26.60;2.90;;;;;;;4.42;100.00;96691.22;5011786;28;20053;-80
2023/01/12 01:38:50;;;;;;;17.83;2.40;;;;;;;4.39;100.00;96688.28;5012526;28;20042;-81
2023/01/12 01:41:20;;;;;;;31.33;3.05;;;;;;;4.35;100.00;96698.78;5011940;28;20692;-78
2023/01/12 01:43:56;;;;;;;18.80;2.30;;;;;;;4.31;100.00;96703.09;5012046;28;20128;-80
2023/01/12 01:46:40;;;;;;;21.92;2.35;;;;;;;4.28;100.00;96709.03;5010317;28;20498;-79
2023/01/12 01:49:27;;;;;;;30.55;3.00;;;;;;;4.23;100.00;96709.03;5009859;28;20046;-79
2023/01/12 01:51:57;;;;;;;21.80;2.53;;;;;;;4.21;100.00;96703.09;5009760;28;20494;-81
2023/01/12 01:54:23;;;;;;;19.30;2.40;;;;;;;4.17;100.00;96702.00;5010453;28;20048;-79
2023/01/12 01:56:54;;;;;;;17.73;2.30;;;;;;;4.08;100.00;96709.03;5010996;28;20060;-80
2023/01/12 01:59:24;;;;;;;18.58;2.15;;;;;;;4.06;100.00;96705.75;5010478;28;20054;-80
2023/01/12 02:01:52;;;;;;;19.10;2.35;;;;;;;4.03;100.00;96711.72;5011195;28;20133;-79
2023/01/12 02:04:20;;;;;;;14.95;2.25;;;;;;;3.99;100.00;96711.41;5009641;28;20413;-79
2023/01/12 02:06:48;;;;;;;20.80;2.60;;;;;;;4.01;100.00;96708.44;5010239;28;20590;-78
2023/01/12 02:09:18;;;;;;;32.38;3.53;;;;;;;3.99;100.00;96705.22;5009368;28;20414;-80
2023/01/12 02:17:28;;;;;;;31.77;3.72;;;;;;;3.90;100.00;96689.56;5009585;28;20101;-81
2023/01/12 02:20:28;;;;;;;24.08;2.75;;;;;;;3.98;100.00;96685.56;5010483;28;20057;-79
2023/01/12 02:23:30;;;;;;;21.10;2.58;;;;;;;4.00;99.22;96685.28;5007686;28;20045;-83
2023/01/12 02:26:28;;;;;;;14.60;2.33;;;;;;;3.93;99.59;96682.84;4992041;28;20072;-79
2023/01/12 02:29:15;;;;;;;25.17;2.80;;;;;;;3.91;99.64;96685.81;5013447;28;20610;-79
2023/01/12 02:31:56;;;;;;;17.98;3.08;;;;;;;3.83;99.76;96686.34;5008460;28;20061;-78
2023/01/12 02:34:34;;;;;;;12.77;2.00;;;;;;;3.84;99.57;96685.25;5013550;28;20042;-79
2023/01/12 02:37:13;;;;;;;17.08;2.15;;;;;;;3.79;99.12;96687.94;5014709;28;20057;-79
2023/01/12 02:39:44;;;;;;;11.07;1.73;;;;;;;3.79;98.85;96690.63;5015052;28;20050;-81
2023/01/12 02:45:11;;;;;;;19.88;2.42;;;;;;;3.65;99.46;96679.59;5012782;28;20048;-79
2023/01/12 02:47:46;;;;;;;23.90;2.50;;;;;;;3.63;99.14;96678.22;5015294;28;20050;-80
2023/01/12 02:50:14;;;;;;;18.25;2.38;;;;;;;3.56;99.50;96670.41;5014061;28;20046;-81
2023/01/12 02:52:49;;;;;;;10.88;1.65;;;;;;;3.53;99.18;96675.50;5015034;28;20413;-80
2023/01/12 02:55:19;;;;;;;20.45;2.17;;;;;;;3.52;99.48;96663.09;5014253;28;20049;-82
2023/01/12 02:57:47;;;;;;;13.40;2.22;;;;;;;3.48;99.09;96668.19;5014333;28;20046;-81
2023/01/12 03:00:20;;;;;;;13.25;1.95;;;;;;;3.44;99.34;96667.09;5014354;28;20057;-81
2023/01/12 03:02:49;;;;;;;17.35;1.90;;;;;;;3.44;99.46;96663.59;5014791;28;20393;-81
2023/01/12 03:05:16;;;;;;;21.02;2.90;;;;;;;3.52;98.72;96673.88;5012557;28;20060;-80
2023/01/12 03:07:48;;;;;;;31.60;3.33;;;;;;;3.50;98.39;96670.63;5012771;28;20046;-79
2023/01/12 03:10:37;;;;;;;26.25;2.70;;;;;;;3.50;98.13;96676.00;5012645;28;20057;-81
2023/01/12 03:13:08;;;;;;;28.17;2.97;;;;;;;3.50;97.78;96681.38;5011785;28;20034;-79
2023/01/12 03:15:38;;;;;;;13.27;1.85;;;;;;;3.51;97.48;96677.66;5013340;28;20677;-80
2023/01/12 03:18:12;;;;;;;24.98;2.42;;;;;;;3.49;97.64;96675.19;5012172;28;20056;-79
2023/01/12 03:20:44;;;;;;;11.60;1.75;;;;;;;3.48;97.35;96672.78;5013385;28;20046;-81
2023/01/12 03:23:14;;;;;;;24.67;2.55;;;;;;;3.49;97.15;96659.03;5012844;28;20516;-82
2023/01/12 03:25:44;;;;;;;19.90;2.03;;;;;;;3.51;97.16;96661.50;5012900;28;20053;-79
2023/01/12 03:28:14;;;;;;;25.90;2.40;;;;;;;3.51;96.72;96664.19;5012325;28;20049;-79
2023/01/12 03:30:46;;;;;;;15.02;2.08;;;;;;;3.46;96.85;96659.59;5013153;28;20541;-80
2023/01/12 03:33:14;;;;;;;28.63;2.60;;;;;;;3.43;96.92;96654.72;5012372;28;20494;-81
2023/01/12 03:35:51;;;;;;;17.10;1.92;;;;;;;3.39;97.14;96649.09;5012790;28;20054;-79
2023/01/12 03:38:24;;;;;;;34.78;2.53;;;;;;;3.34;97.26;96657.13;5010790;28;20054;-81
2023/01/12 03:40:59;;;;;;;20.92;2.38;;;;;;;3.34;97.54;96651.75;5012812;28;20049;-80
2023/01/12 03:43:30;;;;;;;42.53;2.83;;;;;;;3.28;97.72;96647.41;5010153;28;20083;-79
2023/01/12 03:46:04;;;;;;;19.23;1.52;;;;;;;3.28;97.93;96658.16;5013505;28;20136;-80
2023/01/12 03:48:38;;;;;;;24.35;2.40;;;;;;;3.21;98.34;96646.03;5015849;28;20446;-80
2023/01/12 03:51:13;;;;;;;43.30;4.13;;;;;;;3.22;98.25;96637.69;5023215;28;20527;-79
2023/01/12 03:53:43;;;;;;;14.15;1.80;;;;;;;3.25;98.45;96647.16;5023058;28;20494;-79
2023/01/12 03:56:11;;;;;;;23.38;3.00;;;;;;;3.18;98.19;96647.38;5022320;28;20060;-78
2023/01/12 03:58:38;;;;;;;14.13;1.98;;;;;;;3.16;98.31;96649.53;5023944;28;20054;-81
2023/01/12 04:01:05;;;;;;;38.35;3.40;;;;;;;3.11;98.43;96641.44;5022314;28;20061;-80
2023/01/12 04:03:33;;;;;;;28.95;2.65;;;;;;;3.08;98.62;96631.19;5021338;28;20061;-82
2023/01/12 04:06:00;;;;;;;17.20;2.00;;;;;;;3.06;98.83;96638.72;5019535;28;20050;-81
2023/01/12 04:08:27;;;;;;;23.73;2.80;;;;;;;3.02;98.94;96649.19;5022247;28;20049;-84
2023/01/12 04:10:53;;;;;;;28.48;2.53;;;;;;;2.99;99.12;96643.53;5018697;28;20409;-83
2023/01/12 04:13:20;;;;;;;25.15;3.00;;;;;;;2.94;99.23;96646.22;5017248;28;20050;-87
2023/01/12 04:15:46;;;;;;;19.40;2.88;;;;;;;2.91;99.40;96652.09;5018987;28;20050;-85
2023/01/12 04:18:13;;;;;;;9.57;2.58;;;;;;;2.86;99.46;96640.22;5016716;28;20045;-84
2023/01/12 04:20:41;;;;;;;8.13;2.13;;;;;;;2.82;99.62;96635.66;5014444;28;20049;-81
2023/01/12 04:23:07;;;;;;;6.63;2.40;;;;;;;2.79;99.72;96639.69;5018076;28;20049;-79
2023/01/12 04:25:34;;;;;;;9.13;2.50;;;;;;;2.83;100.00;96635.41;5025010;28;20053;-79
2023/01/12 04:28:01;;;;;;;7.43;1.80;;;;;;;2.86;99.95;96650.19;5024469;28;20046;-79
2023/01/12 04:30:29;;;;;;;6.97;1.92;;;;;;;2.96;99.44;96650.25;5020554;28;20046;-79
2023/01/12 04:32:57;;;;;;;6.95;2.00;;;;;;;3.01;98.98;96644.06;5018759;28;20123;-79
2023/01/12 04:35:24;;;;;;;10.18;1.65;;;;;;;3.07;98.67;96643.03;5016314;28;20053;-79
2023/01/12 04:37:52;;;;;;;39.85;2.55;;;;;;;3.03;98.39;96639.25;5014973;28;20041;-79
2023/01/12 04:40:20;;;;;;;41.47;2.47;;;;;;;3.02;98.04;96637.63;5014825;28;20060;-78
2023/01/12 04:43:03;;;;;;;37.40;2.35;;;;;;;3.01;98.09;96641.38;5014212;28;20079;-79
2023/01/12 04:45:31;;;;;;;29.73;2.38;;;;;;;3.00;98.01;96637.09;5017956;28;20500;-78
2023/01/12 04:48:01;;;;;;;13.75;1.90;;;;;;;2.99;97.94;96630.91;5016704;28;20211;-79
2023/01/12 04:50:28;;;;;;;39.97;2.78;;;;;;;2.98;97.52;96637.34;5005420;28;20044;-79
2023/01/12 04:52:56;;;;;;;53.67;3.20;;;;;;;3.02;97.42;96629.53;5013566;28;20046;-78
2023/01/12 04:55:23;;;;;;;30.60;2.10;;;;;;;2.95;97.63;96623.63;5013768;28;20058;-78
2023/01/12 04:57:49;;;;;;;29.17;2.00;;;;;;;2.86;97.60;96632.16;5015145;28;20052;-79
2023/01/12 05:00:16;;;;;;;46.35;3.05;;;;;;;2.91;97.95;96625.19;5013023;28;20053;-79
2023/01/12 05:02:43;;;;;;;34.05;2.30;;;;;;;2.91;97.59;96614.44;5012764;28;20050;-79
2023/01/12 05:05:09;;;;;;;34.80;2.58;;;;;;;2.92;97.57;96611.47;5011901;28;20060;-78
2023/01/12 05:07:36;;;;;;;92.63;4.72;;;;;;;2.91;97.85;96620.63;5012064;28;20053;-78
2023/01/12 05:10:22;;;;;;;62.85;3.78;;;;;;;2.92;97.58;96626.81;5011721;28;20057;-78
2023/01/12 05:12:48;;;;;;;19.75;3.17;;;;;;;2.91;97.35;96627.88;5011771;28;20058;-79
2023/01/12 05:15:15;;;;;;;9.23;1.90;;;;;;;2.96;96.89;96627.91;5011736;28;20545;-80
2023/01/12 05:17:42;;;;;;;9.95;2.92;;;;;;;2.94;96.80;96624.69;5012442;28;20049;-78
2023/01/12 05:20:10;;;;;;;43.80;3.35;;;;;;;2.98;96.36;96636.56;5011988;28;20061;-79
2023/01/12 05:22:36;;;;;;;23.13;2.22;;;;;;;2.91;95.98;96625.19;5012367;28;20049;-79
2023/01/12 05:25:05;;;;;;;19.75;2.15;;;;;;;2.94;95.87;96622.00;5011800;28;20049;-78
2023/01/12 05:27:31;;;;;;;72.97;4.65;;;;;;;2.96;95.65;96622.53;5012053;28;20046;-79
2023/01/12 05:29:58;;;;;;;36.53;2.58;;;;;;;2.93;95.64;96631.16;5012470;28;20050;-79
2023/01/12 05:32:25;;;;;;;19.52;1.88;;;;;;;2.88;95.78;96627.34;5010205;28;20050;-78
2023/01/12 05:34:51;;;;;;;42.92;2.97;;;;;;;2.81;95.93;96626.75;5019381;28;20045;-78
2023/01/12 05:37:18;;;;;;;22.30;2.05;;;;;;;2.80;96.10;96624.34;5019879;28;20052;-79
2023/01/12 05:39:44;;;;;;;53.88;3.42;;;;;;;2.87;95.99;96632.97;5020129;28;20050;-78
2023/01/12 05:44:57;;;;;;;40.45;2.58;;;;;;;2.96;94.81;96619.84;5021703;28;20064;-79
2023/01/12 05:47:24;;;;;;;24.95;3.40;;;;;;;2.92;95.00;96626.81;5022229;28;20050;-79
2023/01/12 05:49:50;;;;;;;23.35;2.63;;;;;;;2.93;94.95;96623.06;5021632;28;20057;-78
2023/01/12 05:52:17;;;;;;;44.90;3.03;;;;;;;2.95;94.56;96623.63;5021841;28;20052;-79
2023/01/12 05:54:43;;;;;;;18.20;2.42;;;;;;;2.91;94.24;96625.19;5020777;28;20050;-78
2023/01/12 05:57:10;;;;;;;22.13;7.60;;;;;;;2.86;94.46;96624.09;5018284;28;20053;-78
2023/01/12 05:59:37;;;;;;;21.95;9.90;;;;;;;2.81;95.00;96624.06;5020461;28;20057;-79
2023/01/12 06:02:04;;;;;;;4.15;1.40;;;;;;;2.83;94.58;96619.25;5020517;28;20050;-79
2023/01/12 06:04:30;;;;;;;4.43;1.58;;;;;;;2.79;94.59;96620.84;5023283;28;20041;-78
2023/01/12 06:06:59;;;;;;;3.08;1.30;;;;;;;2.77;94.76;96625.69;5022596;28;20407;-79
2023/01/12 06:09:26;;;;;;;3.40;1.00;;;;;;;2.78;94.75;96621.94;5014401;28;20092;-78
2023/01/12 06:14:38;;;;;;;6.72;1.85;;;;;;;2.76;94.19;96602.53;5022414;28;20053;-78
2023/01/12 06:17:05;;;;;;;3.95;1.45;;;;;;;2.77;94.20;96601.50;5024265;28;20055;-78
2023/01/12 06:19:31;;;;;;;11.73;1.80;;;;;;;2.77;94.17;96609.56;5018022;28;20038;-79
2023/01/12 06:21:59;;;;;;;8.70;1.75;;;;;;;2.82;93.40;96611.47;5014544;28;20132;-77
2023/01/12 06:24:26;;;;;;;26.42;2.38;;;;;;;2.86;93.33;96618.72;5007645;28;20133;-79
2023/01/12 06:26:53;;;;;;;13.70;1.77;;;;;;;2.82;93.43;96614.97;5015104;28;20497;-79
2023/01/12 06:29:20;;;;;;;24.52;2.60;;;;;;;2.82;93.07;96612.28;5014061;28;20132;-79
2023/01/12 06:31:48;;;;;;;24.48;2.50;;;;;;;2.93;91.78;96607.75;5014462;28;20133;-79
2023/01/12 06:34:15;;;;;;;8.70;2.00;;;;;;;2.99;91.67;96606.69;5015114;28;20052;-78
2023/01/12 06:36:41;;;;;;;11.52;2.20;;;;;;;3.01;91.64;96609.09;5014858;28;20053;-79
2023/01/12 06:39:08;;;;;;;14.23;2.38;;;;;;;3.02;91.23;96605.34;5014914;28;20057;-78
2023/01/12 06:44:19;;;;;;;8.32;2.20;;;;;;;3.01;89.96;96598.34;5013672;28;20068;-79
2023/01/12 06:46:45;;;;;;;15.73;2.25;;;;;;;3.06;90.03;96601.84;5015689;28;20050;-79
2023/01/12 06:49:15;;;;;;;22.40;3.40;;;;;;;3.05;88.72;96612.91;5013950;28;20046;-80
2023/01/12 06:51:41;;;;;;;14.65;2.45;;;;;;;3.10;88.35;96607.53;5014198;28;20070;-80
2023/01/12 06:54:08;;;;;;;18.60;2.60;;;;;;;3.14;88.21;96614.00;5014018;28;20056;-79
2023/01/12 07:00:04;;;;;;;41.30;3.67;;;;;;;3.10;87.92;96615.59;5107994;23;20057;-78
2023/01/12 07:02:31;;;;;;;13.82;1.98;;;;;;;3.09;87.56;96616.69;5038622;28;20041;-88
2023/01/12 07:04:59;;;;;;;11.52;2.15;;;;;;;3.09;87.62;96622.06;5037954;28;20064;-84
2023/01/12 07:07:25;;;;;;;11.95;2.38;;;;;;;3.09;87.34;96611.31;5028055;28;20068;-91
2023/01/12 07:09:52;;;;;;;12.05;2.58;;;;;;;3.09;87.12;96617.50;5035681;28;20050;-86
2023/01/12 07:12:18;;;;;;;12.60;2.78;;;;;;;3.09;87.12;96611.31;5041296;28;20057;-81
2023/01/12 07:14:45;;;;;;;16.35;2.67;;;;;;;3.12;87.15;96613.44;5038321;28;20058;-86
2023/01/12 07:17:12;;;;;;;13.35;2.90;;;;;;;3.16;87.02;96611.84;5037177;28;20060;-82
2023/01/12 07:19:38;;;;;;;6.13;1.90;;;;;;;3.15;86.94;96599.47;5038210;28;20100;-82
2023/01/12 07:22:06;;;;;;;17.33;4.22;;;;;;;3.27;85.92;96602.72;5038859;28;20121;-80
2023/01/12 07:24:33;;;;;;;9.18;2.15;;;;;;;3.28;85.78;96604.34;5036668;28;20053;-85
2023/01/12 07:27:00;;;;;;;25.35;2.92;;;;;;;3.32;85.53;96608.13;5035521;28;20054;-84
2023/01/12 07:29:26;;;;;;;25.30;3.10;;;;;;;3.40;84.40;96604.94;5033906;28;20071;-87
2023/01/12 07:31:53;;;;;;;26.77;2.88;;;;;;;3.48;83.73;96610.84;5034262;28;20060;-83
2023/01/12 07:34:20;;;;;;;20.73;2.50;;;;;;;3.56;83.35;96607.66;5033413;28;20472;-84
2023/01/12 07:36:48;;;;;;;24.75;2.55;;;;;;;3.55;83.17;96604.16;5034291;28;20060;-83
2023/01/12 07:39:16;;;;;;;34.13;3.60;;;;;;;3.59;82.84;96599.03;5032497;28;20049;-82
2023/01/12 07:44:27;;;;;;;29.85;3.03;;;;;;;3.72;82.19;96598.53;5035881;28;20071;-83
2023/01/12 07:46:54;;;;;;;34.35;2.75;;;;;;;3.95;80.08;96604.44;5036952;28;20057;-80
2023/01/12 07:49:21;;;;;;;33.08;3.10;;;;;;;4.05;79.49;96601.75;5034662;28;20049;-82
2023/01/12 07:51:47;;;;;;;29.02;3.33;;;;;;;4.17;78.83;96619.25;5032064;28;20378;-85
2023/01/12 07:54:14;;;;;;;41.92;4.00;;;;;;;4.27;78.27;96610.34;5031901;28;20053;-83
2023/01/12 07:56:42;;;;;;;30.95;3.13;;;;;;;4.38;77.13;96611.16;5035240;28;20548;-86
2023/01/12 07:59:09;;;;;;;48.00;4.53;;;;;;;4.46;77.01;96602.53;5033441;28;20115;-86
2023/01/12 08:01:36;;;;;;;29.98;3.15;;;;;;;4.48;76.86;96610.31;5031344;28;20053;-88
2023/01/12 08:04:02;;;;;;;31.23;2.95;;;;;;;4.52;76.06;96606.00;5030435;28;20045;-81
2023/01/12 08:06:29;;;;;;;36.88;3.33;;;;;;;4.61;75.60;96604.38;5030965;28;20052;-88
2023/01/12 08:08:56;;;;;;;41.42;3.25;;;;;;;4.69;75.00;96598.41;5031140;28;20664;-83
2023/01/12 08:11:22;;;;;;;30.52;3.55;;;;;;;4.73;75.22;96602.19;5029000;28;20056;-88
2023/01/12 08:13:54;;;;;;;23.63;3.15;;;;;;;4.81;74.06;96598.94;5027071;28;20498;-87
2023/01/12 08:16:23;;;;;;;17.98;2.42;;;;;;;4.89;73.19;96595.66;5032899;28;20041;-87
2023/01/12 08:18:55;;;;;;;31.98;3.00;;;;;;;4.94;72.98;96592.94;5033109;28;20073;-89
2023/01/12 08:21:28;;;;;;;26.65;2.53;;;;;;;4.94;73.47;96598.34;5033937;28;20061;-88
2023/01/12 08:23:57;;;;;;;29.67;2.63;;;;;;;5.01;72.52;96592.63;5035641;28;20049;-89
2023/01/12 08:26:30;;;;;;;27.50;2.75;;;;;;;5.06;72.45;96591.81;5026033;28;20045;-88
2023/01/12 08:29:02;;;;;;;42.93;3.13;;;;;;;5.10;72.28;96593.69;5032952;28;20760;-88
2023/01/12 08:31:31;;;;;;;41.58;3.58;;;;;;;5.19;71.72;96593.91;5026550;28;20284;-87
2023/01/12 08:33:57;;;;;;;36.38;2.75;;;;;;;5.22;72.32;96590.69;5034586;28;20053;-91
2023/01/12 08:36:26;;;;;;;38.88;3.10;;;;;;;5.31;71.37;96594.38;5025079;28;20056;-91
2023/01/12 08:38:52;;;;;;;35.67;3.22;;;;;;;5.34;70.79;96590.34;5032903;28;20600;-88
2023/01/12 08:41:36;;;;;;;57.35;4.75;;;;;;;5.40;70.76;96595.44;5031979;28;20049;-89
2023/01/12 08:44:07;;;;;;;;;;;;;;;5.44;71.03;96596.50;5033881;28;20761;-90
2023/01/12 08:46:35;;;;;;;64.93;3.67;;;;;;;5.46;70.85;96598.91;5034158;28;20457;-89
2023/01/12 08:49:02;;;;;;;58.20;3.65;;;;;;;5.58;69.70;96595.84;5032680;28;20438;-90
2023/01/12 08:51:29;;;;;;;29.90;2.65;;;;;;;5.65;69.85;96591.75;5032804;28;20054;-89
2023/01/12 08:53:56;;;;;;;51.75;4.07;;;;;;;5.69;70.11;96589.28;5033751;28;20061;-90
2023/01/12 08:56:23;;;;;;;41.75;3.35;;;;;;;5.84;69.07;96582.97;5032161;28;20046;-90
2023/01/12 08:58:49;;;;;;;39.15;3.25;;;;;;;5.95;68.08;96589.94;5031841;28;20453;-90
2023/01/12 09:01:18;;;;;;;64.15;4.47;;;;;;;6.05;67.57;96578.25;5031892;28;20053;-88
2023/01/12 09:03:46;;;;;;;30.10;2.90;;;;;;;6.09;68.49;96576.59;5031768;28;20522;-88
2023/01/12 09:06:15;;;;;;;81.57;5.53;;;;;;;6.13;67.42;96577.66;5032466;28;20050;-84
2023/01/12 09:08:42;;;;;;;55.63;3.38;;;;;;;6.14;68.12;96576.56;5033937;28;20136;-88
2023/01/12 09:11:10;;;;;;;87.63;5.22;;;;;;;6.14;68.58;96560.31;5033882;28;20053;-88
2023/01/12 09:13:37;;;;;;;41.22;2.83;;;;;;;6.14;68.35;96576.56;5031043;28;20057;-87
2023/01/12 09:16:04;;;;;;;63.47;3.97;;;;;;;6.16;68.25;96574.34;5032750;28;20045;-89
2023/01/12 09:18:32;;;;;;;32.00;2.50;;;;;;;6.31;66.60;96589.66;5034432;28;20054;-90
2023/01/12 09:21:04;;;;;;;24.13;2.35;;;;;;;6.37;66.81;96602.03;5035593;28;20061;-86
2023/01/12 09:23:30;;;;;;;50.40;3.38;;;;;;;6.42;65.92;96594.69;5035284;28;20041;-90
2023/01/12 09:25:57;;;;;;;44.10;3.30;;;;;;;6.47;66.30;96597.34;5034761;28;20057;-84
2023/01/12 09:28:23;;;;;;;29.40;2.45;;;;;;;6.51;66.42;96598.38;5035278;28;20056;-88
2023/01/12 09:30:50;;;;;;;36.63;2.92;;;;;;;6.55;65.76;96598.63;5036373;28;20060;-87
2023/01/12 09:33:16;;;;;;;73.00;4.97;;;;;;;6.56;66.15;96599.41;5036252;28;20046;-91
2023/01/12 09:35:45;;;;;;;48.38;3.45;;;;;;;6.65;66.77;96603.13;5035148;28;20085;-90
2023/01/12 09:38:11;;;;;;;72.63;4.70;;;;;;;6.67;65.95;96600.91;5033937;28;20104;-90
2023/01/12 09:40:43;;;;;;;26.50;2.53;;;;;;;6.73;65.12;96588.94;5034299;28;20058;-88
2023/01/12 09:48:42;;;;;;;38.10;3.13;;;;;;;7.21;64.52;96583.53;5028725;28;20425;-81
2023/01/12 09:51:17;;;;;;;50.13;3.67;;;;;;;7.09;63.63;96572.28;5032937;28;20053;-81
2023/01/12 09:53:44;;;;;;;44.20;3.53;;;;;;;7.26;65.97;96575.34;5033997;28;20069;-85
2023/01/12 09:56:18;;;;;;;51.47;4.47;;;;;;;7.32;67.35;96571.47;5035990;28;20525;-83
2023/01/12 09:59:02;;;;;;;39.50;3.70;;;;;;;7.31;68.27;96581.50;5035869;28;20053;-85
2023/01/12 10:01:29;;;;;;;42.67;3.40;;;;;;;7.39;68.26;96568.38;5028683;28;20045;-82
2023/01/12 10:03:56;;;;;;;38.40;3.05;;;;;;;7.33;67.13;96570.34;5043589;28;20057;-85
2023/01/12 10:06:24;;;;;;;36.50;2.80;;;;;;;7.17;66.11;96566.25;5043412;28;20061;-83
2023/01/12 10:08:51;;;;;;;46.50;3.22;;;;;;;7.07;65.07;96559.06;5040346;28;20056;-85
2023/01/12 10:11:25;;;;;;;39.90;3.47;;;;;;;7.41;67.33;96552.63;5038912;28;20065;-89
2023/01/12 10:14:15;;;;;;;28.13;2.28;;;;;;;7.66;67.27;96546.84;5037692;28;20053;-85
2023/01/12 10:16:54;;;;;;;43.85;3.25;;;;;;;7.82;65.13;96539.28;5036761;28;20053;-85
2023/01/12 10:19:27;;;;;;;40.15;3.33;;;;;;;7.84;64.52;96534.38;5042621;28;20187;-86
2023/01/12 10:21:56;;;;;;;43.08;3.50;;;;;;;7.82;65.07;96539.28;5042533;28;20049;-82
2023/01/12 10:24:24;;;;;;;36.08;2.83;;;;;;;7.43;65.31;96535.00;5037286;28;20064;-81
2023/01/12 10:26:57;;;;;;;30.00;2.65;;;;;;;7.64;66.46;96537.41;5034163;28;20058;-80
2023/01/12 10:29:23;;;;;;;63.00;4.27;;;;;;;7.73;64.98;96532.94;5032109;28;20049;-77
2023/01/12 10:31:50;;;;;;;62.30;4.85;;;;;;;7.60;64.54;96526.34;5034103;28;20057;-78
2023/01/12 10:34:17;;;;;;;82.70;6.00;;;;;;;7.47;65.27;96530.59;5033553;28;20072;-81
2023/01/12 10:36:46;;;;;;;59.03;3.92;;;;;;;7.58;65.32;96534.78;5035776;28;20059;-79
2023/01/12 10:39:32;;;;;;;55.25;4.03;;;;;;;7.47;64.91;96525.19;5029412;28;20549;-82
2023/01/12 10:45:16;;;;;;;72.15;4.57;;;;;;;7.77;60.19;96514.97;5026204;28;20060;-84
2023/01/12 10:47:44;;;;;;;71.45;4.10;;;;;;;7.85;59.10;96503.44;5029591;28;20051;-86
2023/01/12 10:50:20;;;;;;;84.53;5.00;;;;;;;7.93;59.96;96510.88;5031191;28;20057;-82
2023/01/12 10:52:47;;;;;;;38.97;2.88;;;;;;;8.03;59.25;96504.50;5033016;28;20084;-80
2023/01/12 10:55:19;;;;;;;52.40;4.70;;;;;;;8.04;57.86;96498.78;5033188;28;20049;-81
2023/01/12 10:57:48;;;;;;;68.93;4.43;;;;;;;7.97;58.66;96511.91;5038404;28;20477;-87
2023/01/12 11:00:20;;;;;;;65.65;4.97;;;;;;;7.96;59.57;96507.59;5031997;28;20057;-82
2023/01/12 11:02:47;;;;;;;51.43;3.83;;;;;;;8.06;59.19;96502.00;5032816;28;20057;-85
2023/01/12 11:05:28;;;;;;;72.22;4.72;;;;;;;8.05;59.54;96492.25;5032024;28;20163;-81
2023/01/12 11:07:55;;;;;;;23.42;2.08;;;;;;;8.18;60.03;96498.00;5031693;28;20045;-84
2023/01/12 11:10:29;;;;;;;9.77;2.10;;;;;;;8.11;58.02;96480.22;5031170;28;20057;-82
2023/01/12 11:12:57;;;;;;;9.68;2.50;;;;;;;8.09;58.70;96498.72;5031000;28;20054;-81
2023/01/12 11:15:26;;;;;;;7.53;2.38;;;;;;;8.10;59.20;96492.16;5022020;28;20076;-83
2023/01/12 11:18:06;;;;;;;6.50;1.80;;;;;;;8.16;58.48;96481.22;5030962;28;20567;-78
2023/01/12 11:20:38;;;;;;;13.15;2.67;;;;;;;8.08;59.22;96486.22;5023656;28;20111;-79
2023/01/12 11:23:12;;;;;;;17.77;3.65;;;;;;;7.95;59.63;96484.31;5031266;28;20560;-83
2023/01/12 11:25:43;;;;;;;11.50;3.00;;;;;;;7.97;59.27;96487.50;5030309;28;20510;-83
2023/01/12 11:28:17;;;;;;;20.65;3.25;;;;;;;7.96;59.60;96480.47;5029410;28;20053;-83
2023/01/12 11:30:50;;;;;;;19.77;3.60;;;;;;;7.96;59.75;96480.47;5030198;28;20053;-84
2023/01/12 11:33:22;;;;;;;13.13;2.38;;;;;;;7.96;58.98;96475.06;5029882;28;20049;-83
2023/01/12 11:35:55;;;;;;;19.75;3.33;;;;;;;7.97;59.32;96471.25;5031312;28;20048;-85
2023/01/12 11:38:26;;;;;;;20.42;3.17;;;;;;;7.98;60.31;96467.41;5029671;28;20207;-79
2023/01/12 11:40:57;;;;;;;19.50;3.22;;;;;;;7.97;60.07;96459.59;5029978;28;20053;-84
2023/01/12 11:43:54;;;;;;;21.60;3.03;;;;;;;7.99;60.68;96463.63;5029449;28;20410;-80
2023/01/12 11:46:27;;;;;;;16.65;2.75;;;;;;;8.04;61.06;96466.25;5030432;28;20056;-82
2023/01/12 11:49:06;;;;;;;18.02;3.13;;;;;;;7.95;60.36;96473.47;5031031;28;20635;-84
2023/01/12 11:51:33;;;;;;;20.50;3.30;;;;;;;7.97;60.40;96460.41;5022962;28;20411;-84
2023/01/12 11:54:00;;;;;;;22.40;2.65;;;;;;;7.91;59.08;96456.16;5030811;28;20061;-79
2023/01/12 11:57:04;;;;;;;23.25;3.00;;;;;;;7.85;59.75;96463.59;5031147;28;20045;-81
2023/01/12 11:59:37;;;;;;;22.45;3.22;;;;;;;7.92;59.67;96460.47;5014340;28;20057;-80
2023/01/12 12:02:20;;;;;;;26.02;3.60;;;;;;;7.91;60.40;96461.59;5031181;28;20053;-88
2023/01/12 12:04:59;;;;;;;20.23;2.78;;;;;;;7.96;59.96;96458.00;5030556;28;20057;-81
2023/01/12 12:07:42;;;;;;;29.85;4.35;;;;;;;7.90;60.09;96465.41;5022701;28;20069;-84
2023/01/12 12:10:20;;;;;;;23.30;3.20;;;;;;;7.92;60.57;96468.63;5029544;28;20053;-79
2023/01/12 12:13:14;;;;;;;23.85;3.05;;;;;;;7.92;60.97;96463.19;5029903;28;20045;-81
2023/01/12 12:15:51;;;;;;;26.40;3.28;;;;;;;7.97;59.19;96459.59;5031149;28;20071;-80
2023/01/12 12:18:29;;;;;;;20.98;2.83;;;;;;;7.98;59.75;96462.00;5029221;28;20050;-84
2023/01/12 12:21:08;;;;;;;32.45;3.75;;;;;;;7.92;59.36;96446.94;5030901;28;20560;-82
2023/01/12 12:23:44;;;;;;;36.70;2.85;;;;;;;7.93;59.05;96437.69;5026749;28;20064;-84
2023/01/12 12:26:21;;;;;;;96.60;5.57;;;;;;;7.89;59.72;96436.69;5034457;28;20057;-85